Terminal Aerodrome Forecast
Issued by NWS

Home | Current Version | Previous Version | Text Only | Print | Product List | Glossary On
Versions: 1 2 3 4 5 6 7 8 9 10 11 12 13 14 15 16 17 18 19 20 21 22 23 24 25 26 27
000
FTAK31 PAFA 281126
TAFAQT
TAF
PAQT 281126Z 2812/2912 07012KT P6SM BKN008
      TEMPO 2812/2815 3SM BR BKN005
     FM282000 04010KT P6SM BKN015 BKN100
     FM290300 03008KT P6SM SCT025 BKN050
     FM291000 32006KT P6SM BKN070=

USA.gov is the U.S. government's official web portal to all federal, state and local government web resources and services.